createdAt,value
2022-12-18T00:01:22.821Z,82.90
2022-12-18T00:06:27.889Z,83.18
2022-12-18T00:11:32.460Z,82.55
2022-12-18T00:16:38.211Z,82.96
2022-12-18T00:21:41.764Z,82.42
2022-12-18T00:26:45.329Z,83.47
2022-12-18T00:31:48.491Z,82.26
2022-12-18T00:36:51.880Z,82.84
2022-12-18T00:42:13.542Z,83.42
2022-12-18T00:47:16.634Z,82.17
2022-12-18T00:52:19.729Z,83.34
2022-12-18T00:57:22.763Z,82.29
2022-12-18T01:02:26.034Z,82.65
2022-12-18T01:07:29.399Z,83.08
2022-12-18T01:12:32.512Z,83.05
2022-12-18T01:17:36.770Z,82.83
2022-12-18T01:22:40.281Z,82.78
2022-12-18T01:27:44.634Z,83.17
2022-12-18T01:32:47.657Z,83.25
2022-12-18T01:37:50.647Z,82.42
2022-12-18T01:42:54.539Z,82.35
2022-12-18T01:48:06.606Z,82.66
2022-12-18T01:53:15.519Z,82.92
2022-12-18T01:58:19.528Z,82.06
2022-12-18T02:03:22.722Z,82.78
2022-12-18T02:08:38.367Z,82.45
2022-12-18T02:14:17.566Z,83.30
2022-12-18T02:19:41.679Z,82.73
2022-12-18T02:25:30.702Z,83.40
2022-12-18T02:30:37.308Z,83.28
2022-12-18T02:35:42.908Z,82.93
2022-12-18T02:40:47.294Z,83.48
2022-12-18T02:45:59.861Z,82.81
2022-12-18T02:51:19.046Z,82.28
2022-12-18T02:56:36.651Z,83.12
2022-12-18T03:01:56.224Z,82.82
2022-12-18T03:07:04.367Z,82.30
2022-12-18T03:12:36.771Z,82.64
2022-12-18T03:17:46.211Z,82.17
2022-12-18T03:22:58.834Z,82.79
2022-12-18T03:28:06.659Z,82.38
2022-12-18T03:33:19.167Z,82.08
2022-12-18T03:38:24.489Z,82.41
2022-12-18T03:43:45.134Z,82.51
2022-12-18T03:48:53.215Z,82.00
2022-12-18T03:54:02.964Z,82.34
2022-12-18T03:59:13.884Z,82.50
2022-12-18T04:04:19.511Z,82.52
2022-12-18T04:09:23.129Z,81.41
2022-12-18T04:14:27.428Z,81.94
2022-12-18T04:19:32.913Z,81.73
2022-12-18T04:24:38.164Z,82.16
2022-12-18T04:29:52.115Z,82.43
2022-12-18T04:34:55.528Z,81.83
2022-12-18T04:39:58.687Z,82.59
2022-12-18T04:45:10.707Z,81.54
2022-12-18T04:50:13.855Z,81.22
2022-12-18T04:55:17.031Z,81.70
2022-12-18T05:00:21.055Z,82.50
2022-12-18T05:05:24.216Z,82.08
2022-12-18T05:10:27.293Z,82.24
2022-12-18T05:15:32.647Z,82.09
2022-12-18T05:20:35.807Z,82.28
2022-12-18T05:25:38.856Z,82.69
2022-12-18T05:30:44.779Z,82.42
2022-12-18T05:35:55.117Z,81.78
2022-12-18T05:40:58.690Z,82.66
2022-12-18T05:46:09.050Z,82.13
2022-12-18T05:51:15.835Z,81.79
2022-12-18T05:56:21.722Z,81.84
2022-12-18T06:01:27.741Z,81.42
2022-12-18T06:06:30.949Z,82.24
2022-12-18T06:11:34.006Z,81.08
2022-12-18T06:16:37.293Z,81.82
2022-12-18T06:21:40.323Z,82.05
2022-12-18T06:26:43.389Z,82.49
2022-12-18T06:31:46.923Z,81.81
2022-12-18T06:36:50.081Z,82.29
2022-12-18T06:41:53.074Z,82.38
2022-12-18T06:46:56.725Z,81.52
2022-12-18T06:51:59.804Z,82.05
2022-12-18T06:57:02.851Z,81.05
2022-12-18T07:08:08.721Z,81.83
2022-12-18T07:18:35.752Z,81.90
2022-12-18T07:23:39.206Z,81.50
2022-12-18T07:28:43.367Z,82.35
2022-12-18T07:33:47.113Z,81.59
2022-12-18T07:38:51.324Z,81.98
2022-12-18T07:43:57.119Z,82.78
2022-12-18T07:49:00.024Z,82.50
2022-12-18T07:54:03.111Z,81.72
2022-12-18T07:59:06.183Z,82.21
2022-12-18T08:04:17.826Z,82.31
2022-12-18T08:09:20.850Z,81.80
2022-12-18T08:14:24.191Z,82.71
2022-12-18T08:19:27.206Z,82.17
2022-12-18T08:24:30.289Z,81.69
2022-12-18T08:29:33.408Z,81.96
2022-12-18T08:34:36.678Z,82.24
2022-12-18T08:39:39.798Z,81.36
2022-12-18T08:44:42.875Z,81.63
2022-12-18T08:49:45.921Z,81.77
2022-12-18T08:54:49.038Z,81.83
2022-12-18T08:59:52.127Z,81.63
2022-12-18T09:04:57.632Z,81.57
2022-12-18T09:10:00.956Z,81.05
2022-12-18T09:15:06.422Z,81.85
2022-12-18T09:20:09.812Z,80.81
2022-12-18T09:25:12.879Z,81.31
2022-12-18T09:30:16.046Z,80.99
2022-12-18T09:35:19.123Z,81.24
2022-12-18T09:40:26.936Z,81.50
2022-12-18T09:45:36.984Z,81.35
2022-12-18T09:50:41.925Z,81.78
2022-12-18T09:55:47.885Z,80.90
2022-12-18T10:00:53.920Z,81.68
2022-12-18T10:06:18.010Z,81.42
2022-12-18T10:12:02.901Z,81.33
2022-12-18T10:17:23.822Z,81.50
2022-12-18T10:22:45.914Z,82.21
2022-12-18T10:27:52.816Z,81.88
2022-12-18T10:32:57.454Z,81.42
2022-12-18T10:38:13.790Z,82.56
2022-12-18T10:43:22.134Z,81.49
2022-12-18T10:48:25.975Z,82.19
2022-12-18T10:53:32.034Z,81.75
2022-12-18T10:58:37.491Z,81.47
2022-12-18T11:03:45.991Z,81.85
2022-12-18T11:09:19.499Z,81.76
2022-12-18T11:14:33.869Z,81.48
2022-12-18T11:19:39.289Z,81.25
2022-12-18T11:24:43.591Z,81.99
2022-12-18T11:29:47.044Z,81.24
2022-12-18T11:34:59.140Z,81.86
2022-12-18T11:40:11.864Z,81.59
2022-12-18T11:45:15.929Z,80.75
2022-12-18T11:50:44.076Z,81.41
2022-12-18T11:56:25.348Z,81.61
2022-12-18T12:01:44.204Z,81.55
2022-12-18T12:07:12.485Z,82.10
2022-12-18T12:12:49.382Z,82.40
2022-12-18T12:18:14.714Z,81.65
2022-12-18T12:23:45.940Z,82.18
2022-12-18T12:28:54.747Z,81.92
2022-12-18T12:34:18.733Z,82.27
2022-12-18T12:39:31.665Z,82.00
2022-12-18T12:44:45.643Z,82.13
2022-12-18T12:49:51.954Z,82.75
2022-12-18T12:54:55.983Z,82.46
2022-12-18T13:00:06.779Z,81.80
2022-12-18T13:05:31.934Z,82.71
2022-12-18T13:10:38.225Z,82.23
2022-12-18T13:15:49.721Z,82.71
2022-12-18T13:26:33.474Z,82.58
2022-12-18T13:31:42.527Z,81.94
2022-12-18T13:42:32.777Z,82.57
2022-12-18T13:47:41.773Z,82.20
2022-12-18T13:52:45.239Z,82.22
2022-12-18T13:57:48.335Z,82.24
2022-12-18T14:02:53.101Z,83.16
2022-12-18T14:08:01.268Z,83.00
2022-12-18T14:13:08.417Z,82.45
2022-12-18T14:18:21.193Z,82.81
2022-12-18T14:23:38.000Z,82.35
2022-12-18T14:28:50.357Z,81.92
2022-12-18T14:33:54.610Z,81.59
2022-12-18T14:38:59.281Z,82.24
2022-12-18T14:44:08.288Z,81.53
2022-12-18T14:49:33.986Z,81.60
2022-12-18T14:54:38.860Z,81.37
2022-12-18T14:59:41.968Z,81.69
2022-12-18T15:04:45.283Z,81.68
2022-12-18T15:10:15.683Z,81.16
2022-12-18T15:15:37.344Z,81.02
2022-12-18T15:20:53.834Z,81.52
2022-12-18T15:26:00.130Z,81.48
2022-12-18T15:31:08.282Z,81.28
2022-12-18T15:36:14.608Z,81.77
2022-12-18T15:41:24.673Z,81.31
2022-12-18T15:46:28.894Z,80.68
2022-12-18T15:51:38.067Z,80.74
2022-12-18T15:56:59.721Z,81.33
2022-12-18T16:02:02.842Z,80.76
2022-12-18T16:07:14.910Z,80.58
2022-12-18T16:12:22.405Z,80.97
2022-12-18T16:17:25.468Z,80.76
2022-12-18T16:22:30.782Z,80.84
2022-12-18T16:27:33.979Z,80.70
2022-12-18T16:32:41.983Z,80.78
2022-12-18T16:37:45.557Z,80.35
2022-12-18T16:42:48.677Z,80.70
2022-12-18T16:47:52.899Z,80.27
2022-12-18T16:52:56.102Z,80.40
2022-12-18T16:57:59.238Z,79.89
2022-12-18T17:03:02.310Z,80.53
2022-12-18T17:08:06.048Z,80.28
2022-12-18T17:13:21.378Z,79.77
2022-12-18T17:18:28.530Z,80.48
2022-12-18T17:23:34.519Z,80.58
2022-12-18T17:28:39.030Z,79.89
2022-12-18T17:33:42.583Z,79.50
2022-12-18T17:38:53.499Z,79.70
2022-12-18T17:44:05.980Z,79.40
2022-12-18T17:49:11.018Z,79.55
2022-12-18T17:54:20.424Z,79.38
2022-12-18T17:59:23.580Z,79.35
2022-12-18T18:04:26.670Z,78.95
2022-12-18T18:09:32.043Z,79.31
2022-12-18T18:14:35.190Z,78.91
2022-12-18T18:19:38.336Z,78.95
2022-12-18T18:24:44.032Z,78.78
2022-12-18T18:29:50.142Z,79.07
2022-12-18T18:34:53.250Z,79.74
2022-12-18T18:39:57.287Z,79.57
2022-12-18T18:45:02.975Z,79.41
2022-12-18T18:50:10.531Z,79.15
2022-12-18T18:55:24.051Z,79.66
2022-12-18T19:00:28.931Z,79.68
2022-12-18T19:05:32.613Z,79.67
2022-12-18T19:10:41.096Z,79.82
2022-12-18T19:15:46.264Z,79.91
2022-12-18T19:21:01.124Z,79.67
2022-12-18T19:31:35.464Z,79.04
2022-12-18T19:36:40.606Z,79.22
2022-12-18T19:41:44.683Z,79.01
2022-12-18T19:46:51.848Z,78.73
2022-12-18T19:51:54.716Z,78.56
2022-12-18T19:56:57.619Z,78.57
2022-12-18T20:02:00.776Z,78.83
2022-12-18T20:07:03.926Z,78.49
2022-12-18T20:12:07.214Z,78.68
2022-12-18T20:17:10.245Z,78.52
2022-12-18T20:22:13.772Z,78.37
2022-12-18T20:27:19.570Z,78.50
2022-12-18T20:32:22.801Z,78.89
2022-12-18T20:37:25.970Z,78.41
2022-12-18T20:42:30.131Z,78.86
2022-12-18T20:47:33.175Z,77.99
2022-12-18T20:52:36.218Z,78.67
2022-12-18T20:57:39.397Z,78.66
2022-12-18T21:02:42.685Z,77.72
2022-12-18T21:07:45.848Z,78.03
2022-12-18T21:12:58.852Z,77.41
2022-12-18T21:18:05.166Z,78.12
2022-12-18T21:23:16.476Z,77.93
2022-12-18T21:28:20.035Z,78.41
2022-12-18T21:33:23.237Z,78.57
2022-12-18T21:38:28.713Z,78.21
2022-12-18T21:43:50.361Z,77.85
2022-12-18T21:48:53.414Z,77.98
2022-12-18T21:53:56.558Z,77.27
2022-12-18T21:58:59.617Z,77.92
2022-12-18T22:04:02.943Z,76.95
2022-12-18T22:09:06.639Z,76.43
2022-12-18T22:14:47.472Z,76.63
2022-12-18T22:19:48.612Z,76.29
2022-12-18T22:24:52.639Z,76.08
2022-12-18T22:30:04.797Z,75.61
2022-12-18T22:35:14.311Z,75.18
2022-12-18T22:40:24.659Z,75.29
2022-12-18T22:45:28.625Z,75.62
2022-12-18T22:50:34.050Z,75.34
2022-12-18T23:01:02.670Z,75.86
2022-12-18T23:06:07.385Z,75.98
2022-12-18T23:11:11.824Z,75.67
2022-12-18T23:16:17.184Z,75.16
2022-12-18T23:21:21.240Z,73.97
2022-12-18T23:26:33.094Z,73.18
2022-12-18T23:31:38.867Z,73.41
2022-12-18T23:36:46.258Z,73.45
2022-12-18T23:41:49.824Z,72.83
2022-12-18T23:46:53.152Z,73.29
2022-12-18T23:51:56.283Z,72.77
2022-12-18T23:56:59.463Z,73.12
